createdAt,value
2022-07-31T00:02:08.640Z,15.80
2022-07-31T00:04:41.714Z,15.80
2022-07-31T00:07:08.495Z,15.80
2022-07-31T00:09:53.658Z,15.80
2022-07-31T00:12:28.750Z,15.90
2022-07-31T00:14:55.426Z,15.80
2022-07-31T00:17:35.720Z,15.80
2022-07-31T00:20:02.353Z,15.70
2022-07-31T00:22:35.723Z,15.70
2022-07-31T00:25:08.713Z,15.70
2022-07-31T00:27:35.495Z,15.60
2022-07-31T00:30:08.758Z,15.60
2022-07-31T00:32:41.706Z,15.50
2022-07-31T00:35:15.710Z,15.50
2022-07-31T00:37:44.306Z,15.40
2022-07-31T00:40:13.249Z,15.40
2022-07-31T00:42:46.701Z,15.40
2022-07-31T00:45:13.973Z,15.30
2022-07-31T00:47:56.704Z,15.30
2022-07-31T00:50:23.740Z,15.30
2022-07-31T00:52:57.776Z,15.30
2022-07-31T00:55:25.609Z,15.20
2022-07-31T00:57:58.749Z,15.20
2022-07-31T01:00:25.446Z,15.20
2022-07-31T01:02:58.812Z,15.20
2022-07-31T01:05:25.542Z,15.20
2022-07-31T01:07:58.708Z,15.20
2022-07-31T01:11:04.037Z,15.10
2022-07-31T01:13:50.712Z,15.10
2022-07-31T01:16:18.880Z,15.10
2022-07-31T01:18:54.762Z,15.00
2022-07-31T01:21:27.436Z,15.00
2022-07-31T01:24:08.777Z,14.90
2022-07-31T01:26:50.737Z,14.90
2022-07-31T01:29:35.769Z,14.90
2022-07-31T01:32:10.505Z,14.90
2022-07-31T01:34:54.776Z,14.80
2022-07-31T01:37:37.726Z,14.80
2022-07-31T01:40:16.773Z,14.80
2022-07-31T01:42:50.729Z,14.70
2022-07-31T01:45:26.705Z,14.80
2022-07-31T01:48:00.780Z,14.70
2022-07-31T01:50:42.764Z,14.70
2022-07-31T01:53:21.708Z,14.60
2022-07-31T01:56:02.959Z,14.60
2022-07-31T01:58:42.768Z,14.60
2022-07-31T02:01:12.492Z,14.50
2022-07-31T02:03:46.803Z,14.50
2022-07-31T02:06:20.488Z,14.50
2022-07-31T02:08:57.712Z,14.50
2022-07-31T02:11:24.505Z,14.40
2022-07-31T02:14:13.788Z,14.40
2022-07-31T02:16:40.467Z,14.40
2022-07-31T02:19:09.051Z,14.40
2022-07-31T02:21:41.729Z,14.40
2022-07-31T02:24:15.732Z,14.30
2022-07-31T02:26:42.489Z,14.30
2022-07-31T02:29:19.863Z,14.30
2022-07-31T02:32:02.834Z,14.20
2022-07-31T02:34:31.708Z,14.20
2022-07-31T02:37:06.796Z,14.20
2022-07-31T02:39:35.318Z,14.10
2022-07-31T02:42:03.314Z,14.10
2022-07-31T02:44:38.724Z,14.10
2022-07-31T02:47:13.739Z,14.00
2022-07-31T02:49:47.800Z,14.10
2022-07-31T02:52:20.761Z,14.10
2022-07-31T02:54:48.040Z,14.10
2022-07-31T02:57:21.709Z,14.10
2022-07-31T02:59:48.357Z,14.20
2022-07-31T03:02:15.057Z,14.20
2022-07-31T03:04:48.764Z,14.20
2022-07-31T03:07:17.543Z,14.10
2022-07-31T03:09:44.246Z,14.10
2022-07-31T03:12:18.936Z,14.10
2022-07-31T03:14:54.388Z,14.10
2022-07-31T03:17:38.229Z,14.10
2022-07-31T03:20:08.783Z,14.00
2022-07-31T03:22:42.712Z,14.00
2022-07-31T03:25:10.816Z,13.90
2022-07-31T03:27:44.776Z,13.90
2022-07-31T03:30:25.582Z,13.90
2022-07-31T03:33:02.785Z,13.90
2022-07-31T03:35:30.057Z,13.90
2022-07-31T03:37:56.873Z,13.90
2022-07-31T03:40:29.760Z,13.90
2022-07-31T03:42:57.132Z,13.90
2022-07-31T03:45:30.752Z,13.90
2022-07-31T03:47:57.623Z,13.90
2022-07-31T03:50:31.796Z,13.80
2022-07-31T03:52:58.820Z,13.80
2022-07-31T03:55:32.710Z,13.80
2022-07-31T03:57:59.963Z,13.80
2022-07-31T04:00:33.724Z,13.80
2022-07-31T04:03:15.718Z,13.80
2022-07-31T04:05:43.809Z,13.80
2022-07-31T04:08:31.725Z,13.80
2022-07-31T04:11:05.214Z,13.90
2022-07-31T04:13:45.727Z,13.90
2022-07-31T04:16:19.342Z,13.90
2022-07-31T04:18:52.749Z,13.90
2022-07-31T04:21:20.279Z,14.00
2022-07-31T04:23:53.720Z,14.00
2022-07-31T04:26:25.991Z,14.00
2022-07-31T04:28:59.720Z,14.00
2022-07-31T04:31:26.424Z,14.10
2022-07-31T04:33:56.534Z,14.10
2022-07-31T04:36:31.005Z,14.10
2022-07-31T04:39:05.790Z,14.20
2022-07-31T04:41:32.580Z,14.20
2022-07-31T04:44:05.805Z,14.30
2022-07-31T04:46:32.463Z,14.30
2022-07-31T04:48:59.140Z,14.30
2022-07-31T04:51:32.773Z,14.40
2022-07-31T04:54:05.821Z,14.40
2022-07-31T04:56:48.766Z,14.50
2022-07-31T04:59:18.167Z,14.50
2022-07-31T05:01:45.409Z,14.60
2022-07-31T05:04:19.736Z,14.70
2022-07-31T05:06:49.165Z,14.80
2022-07-31T05:09:29.742Z,14.90
2022-07-31T05:11:58.394Z,15.00
2022-07-31T05:14:38.740Z,15.10
2022-07-31T05:17:18.771Z,15.20
2022-07-31T05:19:51.711Z,15.30
2022-07-31T05:22:24.711Z,15.40
2022-07-31T05:24:57.734Z,15.40
2022-07-31T05:27:24.491Z,15.50
2022-07-31T05:29:57.741Z,15.50
2022-07-31T05:32:30.743Z,15.50
2022-07-31T05:35:03.754Z,15.60
2022-07-31T05:37:30.611Z,15.60
2022-07-31T05:39:57.236Z,15.70
2022-07-31T05:42:30.813Z,15.70
2022-07-31T05:44:57.455Z,15.80
2022-07-31T05:47:40.181Z,15.90
2022-07-31T05:50:08.439Z,16.00
2022-07-31T05:52:41.789Z,16.00
2022-07-31T05:55:15.791Z,16.10
2022-07-31T05:57:42.437Z,16.20
2022-07-31T06:00:16.734Z,16.30
2022-07-31T06:02:44.630Z,16.40
2022-07-31T06:05:17.765Z,16.50
2022-07-31T06:07:51.189Z,16.60
2022-07-31T06:10:25.781Z,16.70
2022-07-31T06:12:59.741Z,16.80
2022-07-31T06:15:36.245Z,16.90
2022-07-31T06:18:10.733Z,17.00
2022-07-31T06:20:37.482Z,17.00
2022-07-31T06:23:20.052Z,17.10
2022-07-31T06:25:49.869Z,17.30
2022-07-31T06:28:29.690Z,17.50
2022-07-31T06:31:17.255Z,17.70
2022-07-31T06:33:51.129Z,17.90
2022-07-31T06:36:25.801Z,18.30
2022-07-31T06:38:52.527Z,18.30
2022-07-31T06:41:44.771Z,18.40
2022-07-31T06:44:11.513Z,18.60
2022-07-31T06:46:48.990Z,18.60
2022-07-31T06:49:23.862Z,18.70
2022-07-31T06:51:56.755Z,18.80
2022-07-31T06:54:29.770Z,18.90
2022-07-31T06:56:56.393Z,19.00
2022-07-31T06:59:39.859Z,19.10
2022-07-31T07:02:14.768Z,19.00
2022-07-31T07:05:04.751Z,19.10
2022-07-31T07:07:34.759Z,19.20
2022-07-31T07:10:01.613Z,19.20
2022-07-31T07:12:28.437Z,19.30
2022-07-31T07:15:01.736Z,19.30
2022-07-31T07:17:41.737Z,19.30
2022-07-31T07:20:15.745Z,19.30
2022-07-31T07:22:42.409Z,19.50
2022-07-31T07:25:15.727Z,19.60
2022-07-31T07:27:42.350Z,19.70
2022-07-31T07:30:15.806Z,19.90
2022-07-31T07:32:42.459Z,20.00
2022-07-31T07:35:15.741Z,20.10
2022-07-31T07:37:42.646Z,20.20
2022-07-31T07:40:09.904Z,20.30
2022-07-31T07:42:42.783Z,20.30
2022-07-31T07:45:23.989Z,20.30
2022-07-31T07:47:53.723Z,20.50
2022-07-31T07:50:40.729Z,20.50
2022-07-31T07:53:14.745Z,20.60
2022-07-31T07:55:41.396Z,20.70
2022-07-31T07:58:14.723Z,20.70
2022-07-31T08:00:41.614Z,20.80
2022-07-31T08:03:49.372Z,20.90
2022-07-31T08:06:01.518Z,21.00
2022-07-31T08:08:34.747Z,21.10
2022-07-31T08:11:03.432Z,21.20
2022-07-31T08:13:46.613Z,21.30
2022-07-31T08:16:22.796Z,21.40
2022-07-31T08:18:56.816Z,21.40
2022-07-31T08:21:23.669Z,21.60
2022-07-31T08:23:50.433Z,21.60
2022-07-31T08:26:27.497Z,21.70
2022-07-31T08:29:05.124Z,21.70
2022-07-31T08:31:40.736Z,21.70
2022-07-31T08:34:30.845Z,21.90
2022-07-31T08:36:59.905Z,22.10
2022-07-31T08:39:54.755Z,22.20
2022-07-31T08:42:21.465Z,22.30
2022-07-31T08:44:48.150Z,22.40
2022-07-31T08:47:22.826Z,22.50
2022-07-31T08:49:49.823Z,22.50
2022-07-31T08:52:30.804Z,22.50
2022-07-31T08:54:58.351Z,22.60
2022-07-31T08:57:26.887Z,22.60
2022-07-31T09:00:00.831Z,22.90
2022-07-31T09:02:33.744Z,23.00
2022-07-31T09:05:06.787Z,23.10
2022-07-31T09:07:33.448Z,23.30
2022-07-31T09:10:06.744Z,23.30
2022-07-31T09:12:34.803Z,23.50
2022-07-31T09:15:36.745Z,23.50
2022-07-31T09:18:03.457Z,23.80
2022-07-31T09:20:36.743Z,23.80
2022-07-31T09:23:13.806Z,23.80
2022-07-31T09:25:56.831Z,23.90
2022-07-31T09:28:40.788Z,24.00
2022-07-31T09:31:10.290Z,24.10
2022-07-31T09:33:47.852Z,24.10
2022-07-31T09:36:21.777Z,24.10
2022-07-31T09:38:48.577Z,24.20
2022-07-31T09:41:58.288Z,24.30
2022-07-31T09:44:14.768Z,24.30
2022-07-31T09:46:46.606Z,24.30
2022-07-31T09:49:13.860Z,24.40
2022-07-31T09:51:51.925Z,24.50
2022-07-31T09:54:26.639Z,24.60
2022-07-31T09:56:59.814Z,24.60
2022-07-31T09:59:26.599Z,24.80
2022-07-31T10:02:00.748Z,24.90
2022-07-31T10:04:28.248Z,25.00
2022-07-31T10:06:56.512Z,24.90
2022-07-31T10:09:31.875Z,25.00
2022-07-31T10:12:00.528Z,25.10
2022-07-31T10:14:47.805Z,25.10
2022-07-31T10:17:24.795Z,25.20
2022-07-31T10:20:00.798Z,25.30
2022-07-31T10:22:33.696Z,25.30
2022-07-31T10:25:08.833Z,25.30
2022-07-31T10:27:39.358Z,25.30
2022-07-31T10:30:14.817Z,25.50
2022-07-31T10:32:42.154Z,25.60
2022-07-31T10:35:15.753Z,25.80
2022-07-31T10:37:45.170Z,25.90
2022-07-31T10:40:46.769Z,26.30
2022-07-31T10:43:20.206Z,26.60
2022-07-31T10:45:55.820Z,26.70
2022-07-31T10:48:29.947Z,26.70
2022-07-31T10:51:04.880Z,26.80
2022-07-31T10:53:50.562Z,26.90
2022-07-31T10:56:24.897Z,26.90
2022-07-31T10:58:58.122Z,26.90
2022-07-31T11:01:34.799Z,26.80
2022-07-31T11:04:02.542Z,26.70
2022-07-31T11:06:47.748Z,27.00
2022-07-31T11:09:23.420Z,27.20
2022-07-31T11:11:56.807Z,27.50
2022-07-31T11:14:35.607Z,27.80
2022-07-31T11:17:08.831Z,28.20
2022-07-31T11:19:43.517Z,28.40
2022-07-31T11:22:32.104Z,28.80
2022-07-31T11:25:00.683Z,29.10
2022-07-31T11:27:40.805Z,29.20
2022-07-31T11:30:13.123Z,29.10
2022-07-31T11:32:53.771Z,29.00
2022-07-31T11:35:28.834Z,29.10
2022-07-31T11:38:02.757Z,29.30
2022-07-31T11:40:32.393Z,29.60
2022-07-31T11:43:25.403Z,30.00
2022-07-31T11:45:54.912Z,29.80
2022-07-31T11:48:28.878Z,29.60
2022-07-31T11:50:55.658Z,29.20
2022-07-31T11:53:22.418Z,29.00
2022-07-31T11:56:00.775Z,28.90
2022-07-31T11:58:35.756Z,28.80
2022-07-31T12:01:11.792Z,29.10
2022-07-31T12:03:45.829Z,29.60
2022-07-31T12:06:17.597Z,29.60
2022-07-31T12:08:52.770Z,29.70
2022-07-31T12:11:26.766Z,29.70
2022-07-31T12:13:59.795Z,30.00
2022-07-31T12:16:48.828Z,30.50
2022-07-31T12:19:29.662Z,30.70
2022-07-31T12:22:25.781Z,31.00
2022-07-31T12:25:00.817Z,31.10
2022-07-31T12:27:34.785Z,30.80
2022-07-31T12:30:13.094Z,30.70
2022-07-31T12:32:45.835Z,30.90
2022-07-31T12:35:18.774Z,31.50
2022-07-31T12:37:48.088Z,31.90
2022-07-31T12:40:32.794Z,32.40
2022-07-31T12:43:00.315Z,31.60
2022-07-31T12:45:37.780Z,31.40
2022-07-31T12:48:05.161Z,31.60
2022-07-31T12:50:40.767Z,31.80
2022-07-31T12:53:07.404Z,32.20
2022-07-31T12:55:40.770Z,32.80
2022-07-31T12:58:13.772Z,32.80
2022-07-31T13:00:40.459Z,31.90
2022-07-31T13:03:13.826Z,31.50
2022-07-31T13:05:50.396Z,31.70
2022-07-31T13:08:18.727Z,32.10
2022-07-31T13:10:46.171Z,32.50
2022-07-31T13:13:19.792Z,32.60
2022-07-31T13:15:59.828Z,32.30
2022-07-31T13:18:26.512Z,31.80
2022-07-31T13:20:59.835Z,31.60
2022-07-31T13:23:26.546Z,31.60
2022-07-31T13:25:59.803Z,31.40
2022-07-31T13:28:26.863Z,30.70
2022-07-31T13:30:55.283Z,30.30
2022-07-31T13:33:28.798Z,30.00
2022-07-31T13:35:55.484Z,29.90
2022-07-31T13:38:22.126Z,29.40
2022-07-31T13:41:13.827Z,29.20
2022-07-31T13:43:59.831Z,29.10
2022-07-31T13:46:34.844Z,29.10
2022-07-31T13:49:07.819Z,29.10
2022-07-31T13:51:34.749Z,28.90
2022-07-31T13:54:07.807Z,28.80
2022-07-31T13:56:43.265Z,28.80
2022-07-31T13:59:13.618Z,28.70
2022-07-31T14:02:03.222Z,28.70
2022-07-31T14:04:38.207Z,28.70
2022-07-31T14:07:13.138Z,28.60
2022-07-31T14:09:51.416Z,28.70
2022-07-31T14:12:28.789Z,28.70
2022-07-31T14:15:10.796Z,28.80
2022-07-31T14:17:38.005Z,29.00
2022-07-31T14:20:11.846Z,28.80
2022-07-31T14:22:38.687Z,28.90
2022-07-31T14:25:05.613Z,28.80
2022-07-31T14:27:38.807Z,28.90
2022-07-31T14:30:09.368Z,29.00
2022-07-31T14:32:42.845Z,29.40
2022-07-31T14:35:09.924Z,29.60
2022-07-31T14:37:43.805Z,29.80
2022-07-31T14:40:11.130Z,29.90
2022-07-31T14:42:44.792Z,29.80
2022-07-31T14:45:11.970Z,30.30
2022-07-31T14:47:38.685Z,30.80
2022-07-31T14:50:16.129Z,31.60
2022-07-31T14:52:52.791Z,32.00
2022-07-31T14:55:19.778Z,32.30
2022-07-31T14:57:52.821Z,32.30
2022-07-31T15:00:19.800Z,32.50
2022-07-31T15:02:52.819Z,32.40
2022-07-31T15:06:41.824Z,32.20
2022-07-31T15:08:12.785Z,32.40
2022-07-31T15:10:39.489Z,32.70
2022-07-31T15:13:12.802Z,33.00
2022-07-31T15:15:45.818Z,33.50
2022-07-31T15:18:12.459Z,33.70
2022-07-31T15:20:45.803Z,34.00
2022-07-31T15:23:12.555Z,34.30
2022-07-31T15:25:45.837Z,34.60
2022-07-31T15:28:12.560Z,34.80
2022-07-31T15:30:39.219Z,34.40
2022-07-31T15:33:12.864Z,33.80
2022-07-31T15:35:39.560Z,33.30
2022-07-31T15:38:12.813Z,32.80
2022-07-31T15:40:39.560Z,32.60
2022-07-31T15:43:12.937Z,32.30
2022-07-31T15:45:45.817Z,32.20
2022-07-31T15:48:12.522Z,32.00
2022-07-31T15:50:39.209Z,31.80
2022-07-31T15:53:12.803Z,31.80
2022-07-31T15:55:39.830Z,31.60
2022-07-31T15:58:06.451Z,31.40
2022-07-31T16:00:39.862Z,31.40
2022-07-31T16:03:17.784Z,31.30
2022-07-31T16:05:56.028Z,31.20
2022-07-31T16:08:35.454Z,31.00
2022-07-31T16:11:02.630Z,30.80
2022-07-31T16:13:29.554Z,30.70
2022-07-31T16:16:02.875Z,30.60
2022-07-31T16:18:36.844Z,30.40
2022-07-31T16:21:03.525Z,30.50
2022-07-31T16:23:36.809Z,30.30
2022-07-31T16:26:09.862Z,30.10
2022-07-31T16:28:36.495Z,30.00
2022-07-31T16:31:09.881Z,30.00
2022-07-31T16:33:42.824Z,30.00
2022-07-31T16:36:25.886Z,29.80
2022-07-31T16:39:18.955Z,29.50
2022-07-31T16:41:54.478Z,29.50
2022-07-31T16:44:28.860Z,29.60
2022-07-31T16:46:55.487Z,29.50
2022-07-31T16:49:36.750Z,29.40
2022-07-31T16:52:05.431Z,29.40
2022-07-31T16:54:38.839Z,29.30
2022-07-31T16:57:05.716Z,29.30
2022-07-31T16:59:33.477Z,29.30
2022-07-31T17:02:26.914Z,29.30
2022-07-31T17:04:54.169Z,28.90
2022-07-31T17:07:21.022Z,28.90
2022-07-31T17:09:53.831Z,28.90
2022-07-31T17:12:20.495Z,28.80
2022-07-31T17:15:00.907Z,28.80
2022-07-31T17:17:34.294Z,28.70
2022-07-31T17:20:07.895Z,28.80
2022-07-31T17:22:44.895Z,28.80
2022-07-31T17:25:24.859Z,28.90
2022-07-31T17:27:51.976Z,28.80
2022-07-31T17:30:18.965Z,28.70
2022-07-31T17:32:51.896Z,28.70
2022-07-31T17:35:31.838Z,28.70
2022-07-31T17:37:58.478Z,28.60
2022-07-31T17:40:42.373Z,28.50
2022-07-31T17:43:16.825Z,28.50
2022-07-31T17:46:05.837Z,28.50
2022-07-31T17:48:41.828Z,28.40
2022-07-31T17:51:16.926Z,28.40
2022-07-31T17:53:55.485Z,28.30
2022-07-31T17:56:33.902Z,28.20
2022-07-31T17:59:11.925Z,28.20
2022-07-31T18:01:38.699Z,28.10
2022-07-31T18:04:11.864Z,28.00
2022-07-31T18:06:54.390Z,27.90
2022-07-31T18:09:29.840Z,27.80
2022-07-31T18:12:04.117Z,27.80
2022-07-31T18:14:44.880Z,27.70
2022-07-31T18:17:25.850Z,27.70
2022-07-31T18:19:52.526Z,27.60
2022-07-31T18:22:25.834Z,27.50
2022-07-31T18:25:07.945Z,27.40
2022-07-31T18:27:41.924Z,27.30
2022-07-31T18:30:10.287Z,27.20
2022-07-31T18:32:44.071Z,27.20
2022-07-31T18:35:11.044Z,27.00
2022-07-31T18:37:43.850Z,26.90
2022-07-31T18:40:11.028Z,26.80
2022-07-31T18:42:43.831Z,26.70
2022-07-31T18:45:10.662Z,26.60
2022-07-31T18:47:37.548Z,26.60
2022-07-31T18:51:02.787Z,26.50
2022-07-31T18:52:58.492Z,26.50
2022-07-31T18:55:31.860Z,26.50
2022-07-31T18:57:58.525Z,26.40
2022-07-31T19:00:26.342Z,26.30
2022-07-31T19:02:59.895Z,26.20
2022-07-31T19:05:27.154Z,26.20
2022-07-31T19:08:00.846Z,26.10
2022-07-31T19:10:30.956Z,26.00
2022-07-31T19:12:58.921Z,25.90
2022-07-31T19:15:31.920Z,25.80
2022-07-31T19:18:02.175Z,25.80
2022-07-31T19:20:56.279Z,25.70
2022-07-31T19:23:28.928Z,25.50
2022-07-31T19:26:03.913Z,25.40
2022-07-31T19:28:41.888Z,25.40
2022-07-31T19:31:08.946Z,25.50
2022-07-31T19:33:41.899Z,25.40
2022-07-31T19:36:16.906Z,25.40
2022-07-31T19:38:46.421Z,25.30
2022-07-31T19:41:19.907Z,25.20
2022-07-31T19:43:46.692Z,25.20
2022-07-31T19:46:19.848Z,25.10
2022-07-31T19:48:46.889Z,25.00
2022-07-31T19:51:21.896Z,25.00
2022-07-31T19:53:48.583Z,25.00
2022-07-31T19:56:21.921Z,24.90
2022-07-31T19:58:56.922Z,24.90
2022-07-31T20:01:24.127Z,24.90
2022-07-31T20:03:51.000Z,24.80
2022-07-31T20:06:23.925Z,24.80
2022-07-31T20:09:00.935Z,24.80
2022-07-31T20:11:27.720Z,24.70
2022-07-31T20:13:54.413Z,24.70
2022-07-31T20:16:27.912Z,24.60
2022-07-31T20:18:54.558Z,24.60
2022-07-31T20:21:31.945Z,24.60
2022-07-31T20:24:09.896Z,24.50
2022-07-31T20:26:42.900Z,24.40
2022-07-31T20:29:09.582Z,24.40
2022-07-31T20:31:42.853Z,24.30
2022-07-31T20:34:09.595Z,24.30
2022-07-31T20:36:42.875Z,24.30
2022-07-31T20:39:15.878Z,24.30
2022-07-31T20:41:42.498Z,24.20
2022-07-31T20:44:09.223Z,24.20
2022-07-31T20:46:42.925Z,24.20
2022-07-31T20:49:19.514Z,24.10
2022-07-31T20:52:03.262Z,24.10
2022-07-31T20:54:34.038Z,24.10
2022-07-31T20:57:01.382Z,24.00
2022-07-31T20:59:34.913Z,24.00
2022-07-31T21:02:08.174Z,23.90
2022-07-31T21:04:34.946Z,23.90
2022-07-31T21:07:07.942Z,23.80
2022-07-31T21:09:34.613Z,23.70
2022-07-31T21:12:02.496Z,23.70
2022-07-31T21:14:35.873Z,23.70
2022-07-31T21:17:08.944Z,23.70
2022-07-31T21:19:41.895Z,23.70
2022-07-31T21:22:08.732Z,23.60
2022-07-31T21:24:41.858Z,23.60
2022-07-31T21:27:11.480Z,23.50
2022-07-31T21:29:44.867Z,23.50
2022-07-31T21:32:12.189Z,23.50
2022-07-31T21:34:39.204Z,23.50
2022-07-31T21:37:16.043Z,23.50
2022-07-31T21:39:43.349Z,23.40
2022-07-31T21:42:10.440Z,23.40
2022-07-31T21:44:43.865Z,23.30
2022-07-31T21:47:21.876Z,23.40
2022-07-31T21:49:58.499Z,23.30
2022-07-31T21:52:27.304Z,23.30
2022-07-31T21:54:53.989Z,23.30
2022-07-31T21:57:26.873Z,23.30
2022-07-31T21:59:53.493Z,23.20
2022-07-31T22:02:20.102Z,23.20
2022-07-31T22:05:11.861Z,23.20
2022-07-31T22:07:43.327Z,23.10
2022-07-31T22:10:16.927Z,23.10
2022-07-31T22:12:51.950Z,23.00
2022-07-31T22:15:50.439Z,23.00
2022-07-31T22:18:33.133Z,23.00
2022-07-31T22:21:03.715Z,22.90
2022-07-31T22:23:36.859Z,22.90
2022-07-31T22:26:04.227Z,22.80
2022-07-31T22:28:37.925Z,22.80
2022-07-31T22:31:04.874Z,22.80
2022-07-31T22:33:37.938Z,22.70
2022-07-31T22:36:07.123Z,22.70
2022-07-31T22:38:34.658Z,22.70
2022-07-31T22:41:08.889Z,22.60
2022-07-31T22:44:12.151Z,22.60
2022-07-31T22:46:29.061Z,22.60
2022-07-31T22:48:59.650Z,22.50
2022-07-31T22:51:38.040Z,22.50
2022-07-31T22:54:11.913Z,22.40
2022-07-31T22:56:44.944Z,22.40
2022-07-31T22:59:11.565Z,22.40
2022-07-31T23:01:44.940Z,22.40
2022-07-31T23:04:11.582Z,22.20
2022-07-31T23:06:38.455Z,22.20
2022-07-31T23:09:11.927Z,22.10
2022-07-31T23:11:38.582Z,22.00
2022-07-31T23:14:11.875Z,21.90
2022-07-31T23:16:51.930Z,21.90
2022-07-31T23:19:18.977Z,21.90
2022-07-31T23:21:45.657Z,21.90
2022-07-31T23:24:18.952Z,21.90
2022-07-31T23:26:45.727Z,21.90
2022-07-31T23:29:18.880Z,21.90
2022-07-31T23:31:51.943Z,21.90
2022-07-31T23:34:18.666Z,21.90
2022-07-31T23:36:45.334Z,21.90
2022-07-31T23:39:19.876Z,22.00
2022-07-31T23:42:05.206Z,21.90
2022-07-31T23:44:41.035Z,21.90
2022-07-31T23:47:15.926Z,21.90
2022-07-31T23:49:48.962Z,21.90
2022-07-31T23:52:22.897Z,21.90
2022-07-31T23:54:49.533Z,21.90
2022-07-31T23:57:16.186Z,21.80
2022-07-31T23:59:48.961Z,21.90
